This demonstration page uses our WeatherBlox Daily Observations layout. Learn more.

36.17497, -115.13722

Hourly Observations for April 5, 2018

Temp ( °F °C ) Dew Point ( °F °C ) Humidity (%) Winds ( mph kmh ) Pressure ( in mb ) Visibility ( mi km ) Precip ( " mm )
12:53 am 00:53 Clear 64 17.8 26 -3.3 24 24 NNW 6 9 29.94 1014 10 16.09344 0 0
1:53 am 01:53 Clear 65 18.3 26 -3.3 23 23 WNW 6 9 29.94 1014 10 16.09344 0 0
2:53 am 02:53 Clear 64 17.8 25 -3.9 23 23 NW 3 6 29.94 1014 10 16.09344 0 0
3:53 am 03:53 Clear 64 17.8 27 -2.8 25 25 N 3 6 29.94 1014 10 16.09344 0 0
4:53 am 04:53 Clear 63 17.2 28 -2.2 27 27 Calm 29.94 1014 10 16.09344 0 0
5:53 am 05:53 Clear 62 16.7 30 -1.1 30 30 Calm 29.94 1014 10 16.09344 0 0
6:53 am 06:53 Sunny 62 16.7 28 -2.2 28 28 WSW 5 7 29.97 1015 10 16.09344 0 0
7:53 am 07:53 Sunny 68 20 22 -5.6 17 17 S 3 6 29.97 1015 10 16.09344 0 0
8:53 am 08:53 Sunny 70 21.1 22 -5.6 16 16 SE 6 9 29.97 1015 10 16.09344 0 0
9:53 am 09:53 Sunny 73 22.8 22 -5.6 15 15 SE 5 7 29.97 1015 10 16.09344 0 0
10:53 am 10:53 Sunny 75 23.9 22 -5.6 14 14 ESE 5 7 29.97 1015 10 16.09344 0 0
11:53 am 11:53 Sunny 77 25 22 -5.6 13 13 ESE 6 9 29.94 1014 10 16.09344 0 0
12:53 pm 12:53 Sunny 79 26.1 23 -5 12 12 N 3 6 29.91 1013 10 16.09344 0 0
1:53 pm 13:53 Sunny 81 27.2 25 -3.9 13 13 ESE 5 7 29.88 1012 10 16.09344 0 0
2:53 pm 14:53 Sunny 83 28.3 26 -3.3 12 12 undefined N/A 29.85 1011 10 16.09344 0 0
3:53 pm 15:53 Sunny 84 28.9 26 -3.3 12 12 SSE 12 19 29.83 1010 10 16.09344 0 0
4:53 pm 16:53 Sunny 85 29.4 22 -5.6 10 10 S 9 15 29.8 1009 10 16.09344 0 0
5:53 pm 17:53 Sunny 84 28.9 17 -8.3 8 8 SSW 9 15 29.8 1009 10 16.09344 0 0
6:53 pm 18:53 Sunny 83 28.3 20 -6.7 10 10 W 8 13 29.8 1009 10 16.09344 0 0
7:53 pm 19:53 Clear 81 27.2 22 -5.6 11 11 WSW 6 9 29.8 1009 10 16.09344 0 0
8:53 pm 20:53 Clear 80 26.7 23 -5 12 12 SSW 8 13 29.8 1009 10 16.09344 0 0
9:53 pm 21:53 Clear 78 25.6 24 -4.4 13 13 W 7 11 29.8 1009 10 16.09344 0 0
10:53 pm 22:53 Clear 77 25 26 -3.3 15 15 S 3 6 29.77 1008 10 16.09344 0 0
11:53 pm 23:53 Clear 75 23.9 26 -3.3 16 16 SSW 6 9 29.77 1008 10 16.09344 0 0

Powered by AerisWeather